sensor_id;sensor_type;location;lat;lon;timestamp;P1;durP1;ratioP1;P2;durP2;ratioP2
2396;SDS011;1209;48.410;9.054;2023-02-22T00:00:24;3.30;;;3.00;;
2396;SDS011;1209;48.410;9.054;2023-02-22T00:03:07;4.30;;;3.50;;
2396;SDS011;1209;48.410;9.054;2023-02-22T00:05:35;4.30;;;3.33;;
2396;SDS011;1209;48.410;9.054;2023-02-22T00:08:03;4.80;;;3.43;;
2396;SDS011;1209;48.410;9.054;2023-02-22T00:10:29;3.27;;;2.97;;
2396;SDS011;1209;48.410;9.054;2023-02-22T00:12:54;5.67;;;3.90;;
2396;SDS011;1209;48.410;9.054;2023-02-22T00:15:35;4.25;;;3.80;;
2396;SDS011;1209;48.410;9.054;2023-02-22T00:18:00;6.93;;;3.60;;
2396;SDS011;1209;48.410;9.054;2023-02-22T00:20:27;4.83;;;3.93;;
2396;SDS011;1209;48.410;9.054;2023-02-22T00:22:52;4.27;;;3.77;;
2396;SDS011;1209;48.410;9.054;2023-02-22T00:25:19;5.30;;;3.73;;
2396;SDS011;1209;48.410;9.054;2023-02-22T00:27:46;7.40;;;3.83;;
2396;SDS011;1209;48.410;9.054;2023-02-22T00:30:17;22.80;;;4.63;;
2396;SDS011;1209;48.410;9.054;2023-02-22T00:32:45;3.08;;;2.78;;
2396;SDS011;1209;48.410;9.054;2023-02-22T00:35:12;5.10;;;3.90;;
2396;SDS011;1209;48.410;9.054;2023-02-22T00:37:38;5.43;;;3.17;;
2396;SDS011;1209;48.410;9.054;2023-02-22T00:40:06;3.20;;;2.93;;
2396;SDS011;1209;48.410;9.054;2023-02-22T00:42:33;5.73;;;3.60;;
2396;SDS011;1209;48.410;9.054;2023-02-22T00:44:58;3.77;;;3.40;;
2396;SDS011;1209;48.410;9.054;2023-02-22T00:47:23;4.17;;;3.03;;
2396;SDS011;1209;48.410;9.054;2023-02-22T00:49:50;3.50;;;2.73;;
2396;SDS011;1209;48.410;9.054;2023-02-22T00:52:15;6.90;;;3.50;;
2396;SDS011;1209;48.410;9.054;2023-02-22T00:54:41;5.30;;;4.17;;
2396;SDS011;1209;48.410;9.054;2023-02-22T00:57:07;5.57;;;4.13;;
2396;SDS011;1209;48.410;9.054;2023-02-22T00:59:32;5.47;;;3.13;;
2396;SDS011;1209;48.410;9.054;2023-02-22T01:01:58;5.30;;;3.50;;
2396;SDS011;1209;48.410;9.054;2023-02-22T01:04:23;4.73;;;2.43;;
2396;SDS011;1209;48.410;9.054;2023-02-22T01:06:48;5.00;;;3.57;;
2396;SDS011;1209;48.410;9.054;2023-02-22T01:09:14;3.30;;;3.00;;
2396;SDS011;1209;48.410;9.054;2023-02-22T01:11:39;3.70;;;3.33;;
2396;SDS011;1209;48.410;9.054;2023-02-22T01:14:05;3.27;;;2.97;;
2396;SDS011;1209;48.410;9.054;2023-02-22T01:16:33;4.37;;;3.17;;
2396;SDS011;1209;48.410;9.054;2023-02-22T01:18:59;3.53;;;2.90;;
2396;SDS011;1209;48.410;9.054;2023-02-22T01:21:25;6.80;;;3.67;;
2396;SDS011;1209;48.410;9.054;2023-02-22T01:23:50;4.30;;;3.10;;
2396;SDS011;1209;48.410;9.054;2023-02-22T01:26:15;3.53;;;2.70;;
2396;SDS011;1209;48.410;9.054;2023-02-22T01:28:41;5.60;;;3.47;;
2396;SDS011;1209;48.410;9.054;2023-02-22T01:31:06;5.50;;;3.20;;
2396;SDS011;1209;48.410;9.054;2023-02-22T01:33:31;5.70;;;3.50;;
2396;SDS011;1209;48.410;9.054;2023-02-22T01:35:58;3.83;;;3.13;;
2396;SDS011;1209;48.410;9.054;2023-02-22T01:38:24;3.37;;;3.07;;
2396;SDS011;1209;48.410;9.054;2023-02-22T01:40:50;5.17;;;3.43;;
2396;SDS011;1209;48.410;9.054;2023-02-22T01:46:05;3.57;;;3.27;;
2396;SDS011;1209;48.410;9.054;2023-02-22T01:48:46;4.20;;;2.73;;
2396;SDS011;1209;48.410;9.054;2023-02-22T01:51:17;3.47;;;3.13;;
2396;SDS011;1209;48.410;9.054;2023-02-22T01:53:47;4.47;;;2.90;;
2396;SDS011;1209;48.410;9.054;2023-02-22T01:56:20;3.30;;;3.10;;
2396;SDS011;1209;48.410;9.054;2023-02-22T01:58:51;5.27;;;4.10;;
2396;SDS011;1209;48.410;9.054;2023-02-22T02:01:20;6.05;;;4.93;;
2396;SDS011;1209;48.410;9.054;2023-02-22T02:03:48;5.50;;;4.80;;
2396;SDS011;1209;48.410;9.054;2023-02-22T02:06:15;5.30;;;4.30;;
2396;SDS011;1209;48.410;9.054;2023-02-22T02:08:47;4.83;;;3.17;;
2396;SDS011;1209;48.410;9.054;2023-02-22T02:11:24;4.83;;;4.37;;
2396;SDS011;1209;48.410;9.054;2023-02-22T02:13:51;5.23;;;4.40;;
2396;SDS011;1209;48.410;9.054;2023-02-22T02:16:22;7.00;;;4.70;;
2396;SDS011;1209;48.410;9.054;2023-02-22T02:18:50;5.47;;;4.90;;
2396;SDS011;1209;48.410;9.054;2023-02-22T02:24:21;4.50;;;3.90;;
2396;SDS011;1209;48.410;9.054;2023-02-22T02:27:22;4.90;;;3.60;;
2396;SDS011;1209;48.410;9.054;2023-02-22T02:30:22;4.50;;;3.57;;
2396;SDS011;1209;48.410;9.054;2023-02-22T02:32:55;4.00;;;3.17;;
2396;SDS011;1209;48.410;9.054;2023-02-22T02:38:01;3.40;;;3.07;;
2396;SDS011;1209;48.410;9.054;2023-02-22T02:46:34;2.80;;;2.60;;
2396;SDS011;1209;48.410;9.054;2023-02-22T02:49:07;3.50;;;2.90;;
2396;SDS011;1209;48.410;9.054;2023-02-22T02:51:37;2.78;;;2.45;;
2396;SDS011;1209;48.410;9.054;2023-02-22T02:54:06;2.65;;;2.25;;
2396;SDS011;1209;48.410;9.054;2023-02-22T02:56:32;6.37;;;3.10;;
2396;SDS011;1209;48.410;9.054;2023-02-22T02:58:58;3.42;;;3.00;;
2396;SDS011;1209;48.410;9.054;2023-02-22T03:07:01;4.47;;;3.13;;
2396;SDS011;1209;48.410;9.054;2023-02-22T03:09:37;3.27;;;2.43;;
2396;SDS011;1209;48.410;9.054;2023-02-22T03:12:16;3.47;;;2.70;;
2396;SDS011;1209;48.410;9.054;2023-02-22T03:14:48;2.70;;;2.50;;
2396;SDS011;1209;48.410;9.054;2023-02-22T03:17:40;4.40;;;2.80;;
2396;SDS011;1209;48.410;9.054;2023-02-22T03:20:21;3.17;;;2.50;;
2396;SDS011;1209;48.410;9.054;2023-02-22T03:22:57;4.18;;;2.95;;
2396;SDS011;1209;48.410;9.054;2023-02-22T03:25:29;3.80;;;2.93;;
2396;SDS011;1209;48.410;9.054;2023-02-22T03:28:02;5.38;;;3.40;;
2396;SDS011;1209;48.410;9.054;2023-02-22T03:30:39;4.60;;;3.10;;
2396;SDS011;1209;48.410;9.054;2023-02-22T03:33:10;4.83;;;3.00;;
2396;SDS011;1209;48.410;9.054;2023-02-22T03:35:47;8.50;;;3.53;;
2396;SDS011;1209;48.410;9.054;2023-02-22T03:38:21;4.70;;;3.47;;
2396;SDS011;1209;48.410;9.054;2023-02-22T03:40:51;4.13;;;2.47;;
2396;SDS011;1209;48.410;9.054;2023-02-22T03:43:24;3.40;;;2.95;;
2396;SDS011;1209;48.410;9.054;2023-02-22T03:45:55;7.70;;;3.20;;
2396;SDS011;1209;48.410;9.054;2023-02-22T03:48:24;3.97;;;3.33;;
2396;SDS011;1209;48.410;9.054;2023-02-22T03:51:10;6.10;;;3.57;;
2396;SDS011;1209;48.410;9.054;2023-02-22T03:53:38;3.23;;;2.47;;
2396;SDS011;1209;48.410;9.054;2023-02-22T03:56:06;5.27;;;3.50;;
2396;SDS011;1209;48.410;9.054;2023-02-22T03:58:34;7.10;;;3.27;;
2396;SDS011;1209;48.410;9.054;2023-02-22T04:01:02;4.20;;;2.90;;
2396;SDS011;1209;48.410;9.054;2023-02-22T04:03:27;4.50;;;3.50;;
2396;SDS011;1209;48.410;9.054;2023-02-22T04:05:52;5.30;;;3.37;;
2396;SDS011;1209;48.410;9.054;2023-02-22T04:08:18;3.30;;;3.00;;
2396;SDS011;1209;48.410;9.054;2023-02-22T04:10:43;4.60;;;2.90;;
2396;SDS011;1209;48.410;9.054;2023-02-22T04:13:08;7.87;;;4.23;;
2396;SDS011;1209;48.410;9.054;2023-02-22T04:15:34;3.40;;;2.27;;
2396;SDS011;1209;48.410;9.054;2023-02-22T04:17:59;2.80;;;2.23;;
2396;SDS011;1209;48.410;9.054;2023-02-22T04:20:25;5.63;;;2.90;;
2396;SDS011;1209;48.410;9.054;2023-02-22T04:22:51;5.30;;;3.13;;
2396;SDS011;1209;48.410;9.054;2023-02-22T04:25:17;3.90;;;3.10;;
2396;SDS011;1209;48.410;9.054;2023-02-22T04:27:43;2.63;;;2.43;;
2396;SDS011;1209;48.410;9.054;2023-02-22T04:30:09;3.37;;;2.50;;
2396;SDS011;1209;48.410;9.054;2023-02-22T04:32:36;4.70;;;3.38;;
2396;SDS011;1209;48.410;9.054;2023-02-22T04:35:02;4.10;;;3.60;;
2396;SDS011;1209;48.410;9.054;2023-02-22T04:37:29;4.40;;;3.00;;
2396;SDS011;1209;48.410;9.054;2023-02-22T04:39:54;3.50;;;2.90;;
2396;SDS011;1209;48.410;9.054;2023-02-22T04:42:19;3.33;;;2.90;;
2396;SDS011;1209;48.410;9.054;2023-02-22T04:44:45;3.97;;;3.57;;
2396;SDS011;1209;48.410;9.054;2023-02-22T04:47:10;4.33;;;3.90;;
2396;SDS011;1209;48.410;9.054;2023-02-22T04:49:35;3.63;;;3.20;;
2396;SDS011;1209;48.410;9.054;2023-02-22T04:52:01;5.33;;;4.07;;
2396;SDS011;1209;48.410;9.054;2023-02-22T04:54:26;3.87;;;3.13;;
2396;SDS011;1209;48.410;9.054;2023-02-22T04:56:51;4.20;;;3.40;;
2396;SDS011;1209;48.410;9.054;2023-02-22T04:59:16;10.33;;;3.53;;
2396;SDS011;1209;48.410;9.054;2023-02-22T05:01:43;3.42;;;2.95;;
2396;SDS011;1209;48.410;9.054;2023-02-22T05:04:09;3.13;;;2.93;;
2396;SDS011;1209;48.410;9.054;2023-02-22T05:06:35;4.00;;;3.10;;
2396;SDS011;1209;48.410;9.054;2023-02-22T05:09:00;4.33;;;2.83;;
2396;SDS011;1209;48.410;9.054;2023-02-22T05:11:26;4.63;;;3.70;;
2396;SDS011;1209;48.410;9.054;2023-02-22T05:13:51;8.97;;;4.07;;
2396;SDS011;1209;48.410;9.054;2023-02-22T05:16:16;4.73;;;3.27;;
2396;SDS011;1209;48.410;9.054;2023-02-22T05:18:42;5.93;;;4.10;;
2396;SDS011;1209;48.410;9.054;2023-02-22T05:21:07;3.87;;;3.47;;
2396;SDS011;1209;48.410;9.054;2023-02-22T05:23:32;3.50;;;3.20;;
2396;SDS011;1209;48.410;9.054;2023-02-22T05:25:58;4.53;;;2.93;;
2396;SDS011;1209;48.410;9.054;2023-02-22T05:28:23;3.97;;;2.80;;
2396;SDS011;1209;48.410;9.054;2023-02-22T05:30:49;4.83;;;3.77;;
2396;SDS011;1209;48.410;9.054;2023-02-22T05:33:14;3.80;;;3.33;;
2396;SDS011;1209;48.410;9.054;2023-02-22T05:35:39;3.90;;;2.97;;
2396;SDS011;1209;48.410;9.054;2023-02-22T05:38:14;3.50;;;3.20;;
2396;SDS011;1209;48.410;9.054;2023-02-22T05:40:39;4.20;;;3.42;;
2396;SDS011;1209;48.410;9.054;2023-02-22T05:43:05;3.50;;;3.20;;
2396;SDS011;1209;48.410;9.054;2023-02-22T05:45:31;4.77;;;3.37;;
2396;SDS011;1209;48.410;9.054;2023-02-22T05:47:57;7.97;;;3.70;;
2396;SDS011;1209;48.410;9.054;2023-02-22T05:50:22;3.43;;;3.13;;
2396;SDS011;1209;48.410;9.054;2023-02-22T05:52:49;9.17;;;4.53;;
2396;SDS011;1209;48.410;9.054;2023-02-22T05:55:15;8.83;;;4.73;;
2396;SDS011;1209;48.410;9.054;2023-02-22T05:57:42;7.93;;;4.10;;
2396;SDS011;1209;48.410;9.054;2023-02-22T06:00:07;9.93;;;5.13;;
2396;SDS011;1209;48.410;9.054;2023-02-22T06:02:33;7.00;;;4.50;;
2396;SDS011;1209;48.410;9.054;2023-02-22T06:04:59;5.30;;;4.67;;
2396;SDS011;1209;48.410;9.054;2023-02-22T06:07:24;13.50;;;5.60;;
2396;SDS011;1209;48.410;9.054;2023-02-22T06:09:50;9.97;;;5.20;;
2396;SDS011;1209;48.410;9.054;2023-02-22T06:12:15;6.03;;;5.07;;
2396;SDS011;1209;48.410;9.054;2023-02-22T06:14:41;14.87;;;5.30;;
2396;SDS011;1209;48.410;9.054;2023-02-22T06:17:10;6.65;;;4.90;;
2396;SDS011;1209;48.410;9.054;2023-02-22T06:19:37;8.52;;;5.80;;
2396;SDS011;1209;48.410;9.054;2023-02-22T06:22:02;12.10;;;6.77;;
2396;SDS011;1209;48.410;9.054;2023-02-22T06:24:29;15.55;;;9.07;;
2396;SDS011;1209;48.410;9.054;2023-02-22T06:26:55;13.00;;;7.50;;
2396;SDS011;1209;48.410;9.054;2023-02-22T06:29:21;24.20;;;9.40;;
2396;SDS011;1209;48.410;9.054;2023-02-22T06:31:48;12.05;;;7.97;;
2396;SDS011;1209;48.410;9.054;2023-02-22T06:34:13;13.13;;;7.90;;
2396;SDS011;1209;48.410;9.054;2023-02-22T06:36:38;16.90;;;9.13;;
2396;SDS011;1209;48.410;9.054;2023-02-22T06:39:04;14.30;;;8.37;;
2396;SDS011;1209;48.410;9.054;2023-02-22T06:41:29;10.57;;;7.20;;
2396;SDS011;1209;48.410;9.054;2023-02-22T06:43:54;13.40;;;7.90;;
2396;SDS011;1209;48.410;9.054;2023-02-22T06:46:19;13.43;;;7.30;;
2396;SDS011;1209;48.410;9.054;2023-02-22T06:48:45;14.03;;;7.20;;
2396;SDS011;1209;48.410;9.054;2023-02-22T06:51:11;16.47;;;8.70;;
2396;SDS011;1209;48.410;9.054;2023-02-22T06:53:36;22.20;;;9.50;;
2396;SDS011;1209;48.410;9.054;2023-02-22T06:56:01;16.43;;;7.83;;
2396;SDS011;1209;48.410;9.054;2023-02-22T06:58:27;7.13;;;4.90;;
2396;SDS011;1209;48.410;9.054;2023-02-22T07:00:53;13.93;;;7.00;;
2396;SDS011;1209;48.410;9.054;2023-02-22T07:03:18;10.97;;;5.57;;
2396;SDS011;1209;48.410;9.054;2023-02-22T07:05:43;8.03;;;5.20;;
2396;SDS011;1209;48.410;9.054;2023-02-22T07:08:09;9.00;;;5.07;;
2396;SDS011;1209;48.410;9.054;2023-02-22T07:10:35;8.20;;;4.90;;
2396;SDS011;1209;48.410;9.054;2023-02-22T07:13:01;10.57;;;5.72;;
2396;SDS011;1209;48.410;9.054;2023-02-22T07:15:28;6.72;;;4.35;;
2396;SDS011;1209;48.410;9.054;2023-02-22T07:17:54;8.88;;;5.70;;
2396;SDS011;1209;48.410;9.054;2023-02-22T07:20:21;9.40;;;5.53;;
2396;SDS011;1209;48.410;9.054;2023-02-22T07:22:48;5.40;;;4.60;;
2396;SDS011;1209;48.410;9.054;2023-02-22T07:25:14;6.78;;;4.57;;
2396;SDS011;1209;48.410;9.054;2023-02-22T07:27:40;7.17;;;4.53;;
2396;SDS011;1209;48.410;9.054;2023-02-22T07:30:25;3.80;;;3.40;;
2396;SDS011;1209;48.410;9.054;2023-02-22T07:32:57;8.68;;;5.50;;
2396;SDS011;1209;48.410;9.054;2023-02-22T07:35:28;6.77;;;4.50;;
2396;SDS011;1209;48.410;9.054;2023-02-22T07:37:55;7.20;;;4.55;;
2396;SDS011;1209;48.410;9.054;2023-02-22T07:40:21;10.23;;;4.93;;
2396;SDS011;1209;48.410;9.054;2023-02-22T07:42:51;5.83;;;4.40;;
2396;SDS011;1209;48.410;9.054;2023-02-22T07:45:18;6.27;;;3.73;;
2396;SDS011;1209;48.410;9.054;2023-02-22T07:47:47;5.60;;;4.63;;
2396;SDS011;1209;48.410;9.054;2023-02-22T07:50:16;8.37;;;4.17;;
2396;SDS011;1209;48.410;9.054;2023-02-22T07:52:46;6.50;;;3.83;;
2396;SDS011;1209;48.410;9.054;2023-02-22T07:55:14;4.00;;;3.50;;
2396;SDS011;1209;48.410;9.054;2023-02-22T07:57:41;4.10;;;3.80;;
2396;SDS011;1209;48.410;9.054;2023-02-22T08:00:08;4.90;;;3.50;;
2396;SDS011;1209;48.410;9.054;2023-02-22T08:02:34;7.90;;;3.90;;
2396;SDS011;1209;48.410;9.054;2023-02-22T08:04:59;4.70;;;3.50;;
2396;SDS011;1209;48.410;9.054;2023-02-22T08:07:24;5.20;;;3.57;;
2396;SDS011;1209;48.410;9.054;2023-02-22T08:09:50;5.50;;;4.33;;
2396;SDS011;1209;48.410;9.054;2023-02-22T08:12:15;5.57;;;4.00;;
2396;SDS011;1209;48.410;9.054;2023-02-22T08:14:41;6.13;;;4.30;;
2396;SDS011;1209;48.410;9.054;2023-02-22T08:17:06;6.43;;;4.20;;
2396;SDS011;1209;48.410;9.054;2023-02-22T08:19:31;4.03;;;3.63;;
2396;SDS011;1209;48.410;9.054;2023-02-22T08:21:56;5.33;;;3.43;;
2396;SDS011;1209;48.410;9.054;2023-02-22T08:24:22;5.13;;;3.87;;
2396;SDS011;1209;48.410;9.054;2023-02-22T08:26:47;6.10;;;3.80;;
2396;SDS011;1209;48.410;9.054;2023-02-22T08:29:12;5.20;;;3.63;;
2396;SDS011;1209;48.410;9.054;2023-02-22T08:31:38;7.97;;;3.20;;
2396;SDS011;1209;48.410;9.054;2023-02-22T08:34:04;5.70;;;3.30;;
2396;SDS011;1209;48.410;9.054;2023-02-22T08:36:29;3.40;;;3.10;;
2396;SDS011;1209;48.410;9.054;2023-02-22T08:38:56;3.60;;;2.97;;
2396;SDS011;1209;48.410;9.054;2023-02-22T08:41:22;4.10;;;3.57;;
2396;SDS011;1209;48.410;9.054;2023-02-22T08:43:47;2.97;;;2.77;;
2396;SDS011;1209;48.410;9.054;2023-02-22T08:46:13;5.47;;;4.33;;
2396;SDS011;1209;48.410;9.054;2023-02-22T08:48:48;9.33;;;4.83;;
2396;SDS011;1209;48.410;9.054;2023-02-22T08:51:14;6.50;;;4.53;;
2396;SDS011;1209;48.410;9.054;2023-02-22T08:53:39;4.90;;;3.40;;
2396;SDS011;1209;48.410;9.054;2023-02-22T08:56:05;5.63;;;4.60;;
2396;SDS011;1209;48.410;9.054;2023-02-22T08:58:30;6.00;;;4.60;;
2396;SDS011;1209;48.410;9.054;2023-02-22T09:00:55;9.53;;;3.80;;
2396;SDS011;1209;48.410;9.054;2023-02-22T09:03:21;4.03;;;3.10;;
2396;SDS011;1209;48.410;9.054;2023-02-22T09:05:47;3.80;;;3.40;;
2396;SDS011;1209;48.410;9.054;2023-02-22T09:08:12;10.03;;;4.13;;
2396;SDS011;1209;48.410;9.054;2023-02-22T09:10:39;7.23;;;5.20;;
2396;SDS011;1209;48.410;9.054;2023-02-22T09:13:05;6.80;;;4.40;;
2396;SDS011;1209;48.410;9.054;2023-02-22T09:15:31;4.50;;;3.47;;
2396;SDS011;1209;48.410;9.054;2023-02-22T09:17:57;5.77;;;3.83;;
2396;SDS011;1209;48.410;9.054;2023-02-22T09:20:23;5.43;;;3.00;;
2396;SDS011;1209;48.410;9.054;2023-02-22T09:22:49;7.20;;;2.80;;
2396;SDS011;1209;48.410;9.054;2023-02-22T09:25:15;3.83;;;3.00;;
2396;SDS011;1209;48.410;9.054;2023-02-22T09:27:41;4.70;;;3.20;;
2396;SDS011;1209;48.410;9.054;2023-02-22T09:30:07;6.93;;;3.57;;
2396;SDS011;1209;48.410;9.054;2023-02-22T09:32:39;4.50;;;3.40;;
2396;SDS011;1209;48.410;9.054;2023-02-22T09:35:04;7.90;;;4.03;;
2396;SDS011;1209;48.410;9.054;2023-02-22T09:37:32;6.57;;;4.57;;
2396;SDS011;1209;48.410;9.054;2023-02-22T09:39:57;11.40;;;6.40;;
2396;SDS011;1209;48.410;9.054;2023-02-22T09:42:26;7.97;;;6.10;;
2396;SDS011;1209;48.410;9.054;2023-02-22T09:47:24;5.30;;;4.13;;
2396;SDS011;1209;48.410;9.054;2023-02-22T09:50:16;8.67;;;4.30;;
2396;SDS011;1209;48.410;9.054;2023-02-22T09:55:31;8.47;;;5.00;;
2396;SDS011;1209;48.410;9.054;2023-02-22T09:57:58;8.00;;;5.93;;
2396;SDS011;1209;48.410;9.054;2023-02-22T10:00:29;7.40;;;5.17;;
2396;SDS011;1209;48.410;9.054;2023-02-22T10:03:18;7.10;;;4.90;;
2396;SDS011;1209;48.410;9.054;2023-02-22T10:05:51;6.47;;;4.00;;
2396;SDS011;1209;48.410;9.054;2023-02-22T10:08:26;9.90;;;4.10;;
2396;SDS011;1209;48.410;9.054;2023-02-22T10:10:57;8.10;;;4.43;;
2396;SDS011;1209;48.410;9.054;2023-02-22T10:13:55;7.03;;;4.10;;
2396;SDS011;1209;48.410;9.054;2023-02-22T10:16:42;4.70;;;4.17;;
2396;SDS011;1209;48.410;9.054;2023-02-22T10:27:06;7.00;;;4.50;;
2396;SDS011;1209;48.410;9.054;2023-02-22T10:29:42;9.53;;;5.23;;
2396;SDS011;1209;48.410;9.054;2023-02-22T10:32:19;4.70;;;3.70;;
2396;SDS011;1209;48.410;9.054;2023-02-22T10:34:50;6.07;;;5.30;;
2396;SDS011;1209;48.410;9.054;2023-02-22T10:37:26;7.40;;;4.93;;
2396;SDS011;1209;48.410;9.054;2023-02-22T10:42:42;4.93;;;4.03;;
2396;SDS011;1209;48.410;9.054;2023-02-22T10:45:22;5.27;;;3.30;;
2396;SDS011;1209;48.410;9.054;2023-02-22T10:47:51;6.40;;;3.40;;
2396;SDS011;1209;48.410;9.054;2023-02-22T10:50:19;4.50;;;3.40;;
2396;SDS011;1209;48.410;9.054;2023-02-22T10:52:46;4.33;;;3.47;;
2396;SDS011;1209;48.410;9.054;2023-02-22T10:55:12;3.93;;;3.30;;
2396;SDS011;1209;48.410;9.054;2023-02-22T10:57:40;5.00;;;3.77;;
2396;SDS011;1209;48.410;9.054;2023-02-22T11:00:15;10.20;;;4.10;;
2396;SDS011;1209;48.410;9.054;2023-02-22T11:02:51;8.13;;;3.97;;
2396;SDS011;1209;48.410;9.054;2023-02-22T11:05:28;4.50;;;3.63;;
2396;SDS011;1209;48.410;9.054;2023-02-22T11:08:14;5.47;;;4.27;;
2396;SDS011;1209;48.410;9.054;2023-02-22T11:10:47;5.83;;;3.63;;
2396;SDS011;1209;48.410;9.054;2023-02-22T11:15:58;5.13;;;3.77;;
2396;SDS011;1209;48.410;9.054;2023-02-22T11:18:41;4.97;;;4.10;;
2396;SDS011;1209;48.410;9.054;2023-02-22T11:21:07;5.97;;;4.60;;
2396;SDS011;1209;48.410;9.054;2023-02-22T11:23:36;6.73;;;4.30;;
2396;SDS011;1209;48.410;9.054;2023-02-22T11:28:33;7.73;;;4.67;;
2396;SDS011;1209;48.410;9.054;2023-02-22T11:31:12;6.30;;;4.20;;
2396;SDS011;1209;48.410;9.054;2023-02-22T11:33:48;9.17;;;4.80;;
2396;SDS011;1209;48.410;9.054;2023-02-22T11:36:28;8.00;;;4.47;;
2396;SDS011;1209;48.410;9.054;2023-02-22T11:41:58;6.40;;;4.07;;
2396;SDS011;1209;48.410;9.054;2023-02-22T11:44:47;6.97;;;4.10;;
2396;SDS011;1209;48.410;9.054;2023-02-22T11:47:12;5.73;;;4.63;;
2396;SDS011;1209;48.410;9.054;2023-02-22T11:49:38;30.80;;;14.50;;
2396;SDS011;1209;48.410;9.054;2023-02-22T11:52:11;15.10;;;9.50;;
2396;SDS011;1209;48.410;9.054;2023-02-22T11:55:07;16.30;;;8.90;;
2396;SDS011;1209;48.410;9.054;2023-02-22T11:57:52;7.67;;;5.23;;
2396;SDS011;1209;48.410;9.054;2023-02-22T12:06:28;7.20;;;5.03;;
2396;SDS011;1209;48.410;9.054;2023-02-22T12:09:12;15.93;;;6.03;;
2396;SDS011;1209;48.410;9.054;2023-02-22T12:11:54;10.07;;;5.67;;
2396;SDS011;1209;48.410;9.054;2023-02-22T12:19:57;7.60;;;5.80;;
2396;SDS011;1209;48.410;9.054;2023-02-22T12:22:31;8.50;;;5.37;;
2396;SDS011;1209;48.410;9.054;2023-02-22T12:25:01;6.03;;;4.97;;
2396;SDS011;1209;48.410;9.054;2023-02-22T12:27:35;8.33;;;4.43;;
2396;SDS011;1209;48.410;9.054;2023-02-22T12:32:59;5.47;;;4.73;;
2396;SDS011;1209;48.410;9.054;2023-02-22T12:35:29;6.00;;;4.53;;
2396;SDS011;1209;48.410;9.054;2023-02-22T12:40:52;9.70;;;5.80;;
2396;SDS011;1209;48.410;9.054;2023-02-22T12:43:26;5.73;;;4.53;;
2396;SDS011;1209;48.410;9.054;2023-02-22T12:45:59;8.60;;;5.40;;
2396;SDS011;1209;48.410;9.054;2023-02-22T12:48:39;6.03;;;4.37;;
2396;SDS011;1209;48.410;9.054;2023-02-22T12:54:00;6.80;;;4.57;;
2396;SDS011;1209;48.410;9.054;2023-02-22T12:59:15;11.83;;;5.10;;
2396;SDS011;1209;48.410;9.054;2023-02-22T13:01:50;7.60;;;5.10;;
2396;SDS011;1209;48.410;9.054;2023-02-22T13:04:20;9.53;;;4.17;;
2396;SDS011;1209;48.410;9.054;2023-02-22T13:12:56;8.33;;;4.40;;
2396;SDS011;1209;48.410;9.054;2023-02-22T13:18:30;7.13;;;3.90;;
2396;SDS011;1209;48.410;9.054;2023-02-22T13:23:47;4.87;;;3.60;;
2396;SDS011;1209;48.410;9.054;2023-02-22T13:26:33;5.77;;;3.80;;
2396;SDS011;1209;48.410;9.054;2023-02-22T13:29:04;6.73;;;3.87;;
2396;SDS011;1209;48.410;9.054;2023-02-22T13:44:50;5.00;;;3.43;;
2396;SDS011;1209;48.410;9.054;2023-02-22T13:53:31;5.00;;;3.90;;
2396;SDS011;1209;48.410;9.054;2023-02-22T13:56:22;7.40;;;4.47;;
2396;SDS011;1209;48.410;9.054;2023-02-22T13:58:50;5.27;;;3.90;;
2396;SDS011;1209;48.410;9.054;2023-02-22T14:06:51;7.40;;;4.30;;
2396;SDS011;1209;48.410;9.054;2023-02-22T14:17:42;8.50;;;4.67;;
2396;SDS011;1209;48.410;9.054;2023-02-22T14:22:39;4.83;;;3.60;;
2396;SDS011;1209;48.410;9.054;2023-02-22T14:25:05;6.70;;;3.40;;
2396;SDS011;1209;48.410;9.054;2023-02-22T14:27:38;5.07;;;3.30;;
2396;SDS011;1209;48.410;9.054;2023-02-22T14:30:05;11.63;;;4.40;;
2396;SDS011;1209;48.410;9.054;2023-02-22T14:32:31;7.40;;;4.33;;
2396;SDS011;1209;48.410;9.054;2023-02-22T14:35:33;7.67;;;4.27;;
2396;SDS011;1209;48.410;9.054;2023-02-22T14:37:55;5.73;;;4.13;;
2396;SDS011;1209;48.410;9.054;2023-02-22T14:40:24;8.33;;;4.97;;
2396;SDS011;1209;48.410;9.054;2023-02-22T14:45:33;8.63;;;4.67;;
2396;SDS011;1209;48.410;9.054;2023-02-22T14:50:46;8.00;;;4.37;;
2396;SDS011;1209;48.410;9.054;2023-02-22T14:53:19;8.93;;;5.13;;
2396;SDS011;1209;48.410;9.054;2023-02-22T14:56:00;7.00;;;4.10;;
2396;SDS011;1209;48.410;9.054;2023-02-22T15:01:14;6.10;;;3.90;;
2396;SDS011;1209;48.410;9.054;2023-02-22T15:03:44;8.73;;;4.73;;
2396;SDS011;1209;48.410;9.054;2023-02-22T15:06:21;7.97;;;4.80;;
2396;SDS011;1209;48.410;9.054;2023-02-22T15:08:48;8.73;;;4.73;;
2396;SDS011;1209;48.410;9.054;2023-02-22T15:11:28;8.13;;;4.60;;
2396;SDS011;1209;48.410;9.054;2023-02-22T15:13:56;10.30;;;5.03;;
2396;SDS011;1209;48.410;9.054;2023-02-22T15:16:22;10.83;;;5.30;;
2396;SDS011;1209;48.410;9.054;2023-02-22T15:18:52;6.20;;;4.53;;
2396;SDS011;1209;48.410;9.054;2023-02-22T15:21:20;8.33;;;5.50;;
2396;SDS011;1209;48.410;9.054;2023-02-22T15:26:26;12.77;;;5.40;;
2396;SDS011;1209;48.410;9.054;2023-02-22T15:28:59;14.03;;;5.33;;
2396;SDS011;1209;48.410;9.054;2023-02-22T15:31:29;10.50;;;5.47;;
2396;SDS011;1209;48.410;9.054;2023-02-22T15:33:54;12.43;;;5.80;;
2396;SDS011;1209;48.410;9.054;2023-02-22T15:36:22;7.60;;;4.70;;
2396;SDS011;1209;48.410;9.054;2023-02-22T15:38:51;7.30;;;4.83;;
2396;SDS011;1209;48.410;9.054;2023-02-22T15:41:29;8.50;;;4.93;;
2396;SDS011;1209;48.410;9.054;2023-02-22T15:46:26;9.20;;;5.10;;
2396;SDS011;1209;48.410;9.054;2023-02-22T15:51:39;7.97;;;4.97;;
2396;SDS011;1209;48.410;9.054;2023-02-22T15:54:10;10.00;;;5.20;;
2396;SDS011;1209;48.410;9.054;2023-02-22T15:56:39;8.00;;;4.97;;
2396;SDS011;1209;48.410;9.054;2023-02-22T15:59:12;7.70;;;5.17;;
2396;SDS011;1209;48.410;9.054;2023-02-22T16:01:40;8.10;;;5.20;;
2396;SDS011;1209;48.410;9.054;2023-02-22T16:04:13;9.50;;;4.90;;
2396;SDS011;1209;48.410;9.054;2023-02-22T16:06:44;12.23;;;6.33;;
2396;SDS011;1209;48.410;9.054;2023-02-22T16:09:12;16.17;;;6.90;;
2396;SDS011;1209;48.410;9.054;2023-02-22T16:11:41;10.60;;;6.43;;
2396;SDS011;1209;48.410;9.054;2023-02-22T16:17:22;9.90;;;6.50;;
2396;SDS011;1209;48.410;9.054;2023-02-22T16:22:35;9.63;;;4.63;;
2396;SDS011;1209;48.410;9.054;2023-02-22T16:27:42;6.17;;;4.50;;
2396;SDS011;1209;48.410;9.054;2023-02-22T16:30:39;8.70;;;5.33;;
2396;SDS011;1209;48.410;9.054;2023-02-22T16:33:06;8.93;;;4.40;;
2396;SDS011;1209;48.410;9.054;2023-02-22T16:35:40;8.90;;;4.70;;
2396;SDS011;1209;48.410;9.054;2023-02-22T16:38:15;9.53;;;4.00;;
2396;SDS011;1209;48.410;9.054;2023-02-22T16:40:54;8.73;;;5.40;;
2396;SDS011;1209;48.410;9.054;2023-02-22T16:43:27;8.70;;;4.80;;
2396;SDS011;1209;48.410;9.054;2023-02-22T16:45:55;8.53;;;5.50;;
2396;SDS011;1209;48.410;9.054;2023-02-22T16:48:22;10.63;;;5.87;;
2396;SDS011;1209;48.410;9.054;2023-02-22T16:50:50;7.57;;;4.97;;
2396;SDS011;1209;48.410;9.054;2023-02-22T16:53:17;8.90;;;5.47;;
2396;SDS011;1209;48.410;9.054;2023-02-22T16:55:45;10.33;;;5.80;;
2396;SDS011;1209;48.410;9.054;2023-02-22T16:58:12;9.00;;;6.00;;
2396;SDS011;1209;48.410;9.054;2023-02-22T17:00:40;10.07;;;6.07;;
2396;SDS011;1209;48.410;9.054;2023-02-22T17:03:08;13.90;;;8.00;;
2396;SDS011;1209;48.410;9.054;2023-02-22T17:05:39;12.83;;;7.20;;
2396;SDS011;1209;48.410;9.054;2023-02-22T17:08:05;13.30;;;6.40;;
2396;SDS011;1209;48.410;9.054;2023-02-22T17:10:30;19.63;;;12.30;;
2396;SDS011;1209;48.410;9.054;2023-02-22T17:12:56;13.90;;;8.00;;
2396;SDS011;1209;48.410;9.054;2023-02-22T17:15:24;17.93;;;7.90;;
2396;SDS011;1209;48.410;9.054;2023-02-22T17:17:52;7.33;;;5.40;;
2396;SDS011;1209;48.410;9.054;2023-02-22T17:20:19;11.90;;;7.50;;
2396;SDS011;1209;48.410;9.054;2023-02-22T17:22:58;10.77;;;7.07;;
2396;SDS011;1209;48.410;9.054;2023-02-22T17:25:29;16.20;;;9.27;;
2396;SDS011;1209;48.410;9.054;2023-02-22T17:27:57;12.90;;;8.47;;
2396;SDS011;1209;48.410;9.054;2023-02-22T17:30:23;13.30;;;8.80;;
2396;SDS011;1209;48.410;9.054;2023-02-22T17:32:49;14.17;;;8.57;;
2396;SDS011;1209;48.410;9.054;2023-02-22T17:35:16;13.83;;;8.60;;
2396;SDS011;1209;48.410;9.054;2023-02-22T17:37:44;20.13;;;9.37;;
2396;SDS011;1209;48.410;9.054;2023-02-22T17:40:11;19.47;;;10.80;;
2396;SDS011;1209;48.410;9.054;2023-02-22T17:42:42;15.27;;;10.50;;
2396;SDS011;1209;48.410;9.054;2023-02-22T17:45:09;18.70;;;10.50;;